Time;durP1;ratioP1;P1;durP2;ratioP2;P2;SDS_P1;SDS_P2;PMS_P1;PMS_P2;Temp;Humidity;BMP_temperature;BMP_pressure;BME280_temperature;BME280_humidity;BME280_pressure;Samples;Min_cycle;Max_cycle;Signal;HPM_P1;HPM_P2
2022/11/10 00:01:21;;;;;;;14.45;3.45;;;;;;;9.76;100.00;101524.66;5032918;28;20017;-69
2022/11/10 00:03:48;;;;;;;17.92;3.25;;;;;;;9.75;100.00;101524.84;5035551;28;20044;-70
2022/11/10 00:06:13;;;;;;;15.60;3.58;;;;;;;9.75;100.00;101531.13;5034147;28;20059;-69
2022/11/10 00:08:38;;;;;;;17.70;4.05;;;;;;;9.75;100.00;101528.41;5024622;28;20414;-69
2022/11/10 00:11:05;;;;;;;16.33;3.95;;;;;;;9.73;100.00;101535.03;5015884;28;20029;-69
2022/11/10 00:13:34;;;;;;;18.10;3.35;;;;;;;9.72;100.00;101534.22;5012323;28;20423;-69
2022/11/10 00:18:48;;;;;;;16.67;3.63;;;;;;;9.72;100.00;101528.81;5034565;28;20400;-70
2022/11/10 00:21:14;;;;;;;15.25;3.35;;;;;;;9.71;100.00;101529.84;5035155;28;20026;-69
2022/11/10 00:23:40;;;;;;;20.15;4.22;;;;;;;9.72;100.00;101531.53;5034880;28;20029;-69
2022/11/10 00:26:14;;;;;;;17.77;4.10;;;;;;;9.68;100.00;101535.66;5035089;28;20103;-69
2022/11/10 00:28:40;;;;;;;15.23;3.67;;;;;;;9.67;100.00;101535.84;5015934;28;20038;-69
2022/11/10 00:31:06;;;;;;;19.42;4.15;;;;;;;9.66;100.00;101537.75;5015056;28;20030;-70
2022/11/10 00:33:34;;;;;;;14.52;3.63;;;;;;;9.65;100.00;101541.47;5014388;28;20026;-69
2022/11/10 00:36:00;;;;;;;15.63;3.67;;;;;;;9.65;100.00;101548.75;5015133;28;20021;-69
2022/11/10 00:38:25;;;;;;;14.20;3.78;;;;;;;9.65;100.00;101554.16;5029749;28;20036;-69
2022/11/10 00:40:50;;;;;;;15.85;3.92;;;;;;;9.62;100.00;101558.09;5034867;28;20087;-70
2022/11/10 00:43:15;;;;;;;15.63;4.03;;;;;;;9.61;100.00;101561.00;5034775;28;20460;-69
2022/11/10 00:45:42;;;;;;;13.43;3.92;;;;;;;9.58;100.00;101563.03;5033292;28;20118;-69
2022/11/10 00:48:07;;;;;;;13.27;3.50;;;;;;;9.56;100.00;101558.88;5015445;28;20174;-72
2022/11/10 00:50:33;;;;;;;17.63;3.88;;;;;;;9.56;100.00;101570.53;5031142;28;20431;-70
2022/11/10 00:52:58;;;;;;;16.20;3.38;;;;;;;9.56;100.00;101567.81;5033324;28;20029;-71
2022/11/10 00:55:23;;;;;;;15.98;3.70;;;;;;;9.58;100.00;101568.44;5034645;28;20104;-71
2022/11/10 00:57:48;;;;;;;16.33;3.60;;;;;;;9.60;100.00;101562.84;5033339;28;20033;-68
2022/11/10 01:00:14;;;;;;;15.98;3.75;;;;;;;9.58;100.00;101562.22;5034164;28;20067;-69
2022/11/10 01:02:39;;;;;;;15.15;3.55;;;;;;;9.55;100.00;101565.31;5014790;28;20026;-69
2022/11/10 01:05:05;;;;;;;18.63;3.78;;;;;;;9.55;100.00;101558.03;5014930;28;20080;-68
2022/11/10 01:07:31;;;;;;;16.98;3.72;;;;;;;9.51;100.00;101567.59;5023884;28;20052;-68
2022/11/10 01:09:56;;;;;;;15.50;3.60;;;;;;;9.53;100.00;101567.41;5034312;28;20026;-68
2022/11/10 01:12:21;;;;;;;14.10;3.67;;;;;;;9.53;100.00;101562.81;5032732;28;20032;-68
2022/11/10 01:14:47;;;;;;;15.43;3.75;;;;;;;9.49;100.00;101564.25;5034273;28;20021;-68
2022/11/10 01:17:12;;;;;;;16.35;3.67;;;;;;;9.51;100.00;101566.75;5027067;28;20428;-68
2022/11/10 01:19:37;;;;;;;14.20;3.40;;;;;;;9.55;100.00;101565.31;5033848;28;20025;-68
2022/11/10 01:22:03;;;;;;;15.35;3.47;;;;;;;9.54;100.00;101572.59;5034401;28;20092;-68
2022/11/10 01:24:28;;;;;;;14.45;3.55;;;;;;;9.53;100.00;101575.50;5033480;28;20433;-68
2022/11/10 01:26:53;;;;;;;15.98;4.10;;;;;;;9.53;100.00;101584.44;5032778;28;20047;-68
2022/11/10 01:29:19;;;;;;;20.58;4.05;;;;;;;9.53;100.00;101605.22;5034163;28;20360;-68
2022/11/10 01:31:44;;;;;;;21.63;4.38;;;;;;;9.52;100.00;101606.25;5031436;28;20041;-68
2022/11/10 01:34:10;;;;;;;21.38;4.03;;;;;;;9.53;100.00;101603.34;5033854;28;20021;-69
2022/11/10 01:36:35;;;;;;;17.17;3.70;;;;;;;9.52;100.00;101606.25;5030970;28;20368;-69
2022/11/10 01:39:00;;;;;;;16.98;3.65;;;;;;;9.54;100.00;101609.56;5014066;28;20109;-68
2022/11/10 01:41:25;;;;;;;17.73;4.03;;;;;;;9.52;100.00;101604.38;5013724;28;20037;-68
2022/11/10 01:43:51;;;;;;;20.95;3.78;;;;;;;9.52;100.00;101617.88;5013624;28;20100;-68
2022/11/10 01:46:16;;;;;;;19.73;3.65;;;;;;;9.50;100.00;101611.03;5018618;28;20017;-68
2022/11/10 01:48:48;;;;;;;18.50;3.63;;;;;;;9.47;100.00;101609.56;5031333;28;20053;-68
2022/11/10 01:51:19;;;;;;;17.15;4.28;;;;;;;9.50;100.00;101608.31;5033766;28;20346;-68
2022/11/10 01:53:51;;;;;;;15.48;3.58;;;;;;;9.48;100.00;101608.53;5033381;28;20604;-68
2022/11/10 01:56:17;;;;;;;14.10;3.38;;;;;;;9.47;100.00;101604.16;5033461;28;20021;-68
2022/11/10 01:58:50;;;;;;;22.65;4.30;;;;;;;9.43;100.00;101607.44;5022759;28;20037;-68
2022/11/10 02:01:15;;;;;;;15.00;3.40;;;;;;;9.46;100.00;101607.06;5027227;28;20125;-68
2022/11/10 02:03:46;;;;;;;17.20;4.00;;;;;;;9.47;100.00;101603.31;5031862;28;20129;-68
2022/11/10 02:06:13;;;;;;;15.07;3.67;;;;;;;9.46;100.00;101601.66;5033017;28;20068;-68
2022/11/10 02:08:40;;;;;;;14.68;3.83;;;;;;;9.42;100.00;101603.06;5031792;28;20036;-68
2022/11/10 02:11:05;;;;;;;13.65;3.33;;;;;;;9.38;100.00;101608.03;5033106;28;20091;-68
2022/11/10 02:13:31;;;;;;;19.55;3.97;;;;;;;9.42;100.00;101606.63;5029925;28;20018;-69
2022/11/10 02:15:56;;;;;;;13.68;3.88;;;;;;;9.39;100.00;101605.16;5033094;28;20068;-68
2022/11/10 02:18:21;;;;;;;17.38;3.75;;;;;;;9.39;100.00;101605.16;5032041;28;20056;-68
2022/11/10 02:20:46;;;;;;;16.75;4.30;;;;;;;9.42;100.00;101612.03;5018535;28;20029;-68
2022/11/10 02:23:30;;;;;;;18.70;4.50;;;;;;;9.43;100.00;101610.97;5013273;28;20022;-68
2022/11/10 02:25:56;;;;;;;19.75;3.75;;;;;;;9.38;100.00;101619.66;5031288;28;20116;-68
2022/11/10 02:28:22;;;;;;;16.52;3.58;;;;;;;9.38;100.00;101622.38;5017153;28;20040;-68
2022/11/10 02:30:48;;;;;;;19.38;3.92;;;;;;;9.39;100.00;101626.75;5013098;28;20072;-68
2022/11/10 02:33:16;;;;;;;17.00;3.05;;;;;;;9.34;100.00;101631.06;5013203;28;20025;-68
2022/11/10 02:35:42;;;;;;;17.20;3.70;;;;;;;9.34;100.00;101631.91;5012453;28;20116;-68
2022/11/10 02:38:07;;;;;;;16.95;3.67;;;;;;;9.32;100.00;101646.66;5011690;28;20385;-68
2022/11/10 02:40:32;;;;;;;16.90;3.28;;;;;;;9.31;100.00;101645.81;5012916;28;20057;-68
2022/11/10 02:42:58;;;;;;;17.20;3.67;;;;;;;9.31;100.00;101658.47;5013335;28;20454;-68
2022/11/10 02:45:23;;;;;;;15.30;3.33;;;;;;;9.30;100.00;101667.59;5013308;28;20046;-68
2022/11/10 02:47:48;;;;;;;17.60;4.10;;;;;;;9.29;100.00;101666.78;5012497;28;20461;-68
2022/11/10 02:50:14;;;;;;;19.52;3.90;;;;;;;9.30;100.00;101668.47;5013222;28;20026;-68
2022/11/10 02:52:39;;;;;;;20.85;3.95;;;;;;;9.30;100.00;101673.84;5012971;28;20018;-68
2022/11/10 02:55:05;;;;;;;15.55;3.50;;;;;;;9.29;100.00;101672.19;5013004;28;20042;-68
2022/11/10 02:57:30;;;;;;;20.55;3.78;;;;;;;9.27;100.00;101659.91;5012374;28;20033;-68
2022/11/10 02:59:55;;;;;;;14.82;3.58;;;;;;;9.23;100.00;101654.88;5013435;28;20025;-68
2022/11/10 03:02:20;;;;;;;16.23;3.83;;;;;;;9.23;100.00;101654.88;5033916;28;20081;-69
2022/11/10 03:04:46;;;;;;;18.17;4.10;;;;;;;9.21;100.00;101658.84;5033688;28;20219;-70
2022/11/10 03:07:11;;;;;;;20.45;4.05;;;;;;;9.19;100.00;101656.34;5012754;28;20365;-68
2022/11/10 03:09:36;;;;;;;14.02;3.38;;;;;;;9.20;100.00;101663.38;5012286;28;20054;-68
2022/11/10 03:12:02;;;;;;;16.30;3.33;;;;;;;9.16;100.00;101667.53;5011477;28;20031;-68
2022/11/10 03:14:27;;;;;;;17.38;3.55;;;;;;;9.18;100.00;101673.56;5011406;28;20094;-68
2022/11/10 03:16:52;;;;;;;17.63;3.85;;;;;;;9.16;100.00;101680.19;5013745;28;20029;-69
2022/11/10 03:19:18;;;;;;;14.85;3.70;;;;;;;9.14;100.00;101683.06;5031243;28;20030;-68
2022/11/10 03:21:43;;;;;;;16.67;3.63;;;;;;;9.13;100.00;101683.25;5030762;28;20029;-69
2022/11/10 03:24:08;;;;;;;18.23;3.72;;;;;;;9.14;100.00;101679.53;5029699;28;20037;-68
2022/11/10 03:26:34;;;;;;;21.02;3.83;;;;;;;9.11;100.00;101685.34;5032117;28;20028;-68
2022/11/10 03:28:59;;;;;;;17.13;3.30;;;;;;;9.09;100.00;101687.38;5031192;28;20108;-68
2022/11/10 03:31:24;;;;;;;19.38;4.35;;;;;;;9.08;100.00;101691.13;5032224;28;20116;-68
2022/11/10 03:33:49;;;;;;;19.20;4.20;;;;;;;9.07;100.00;101705.66;5032346;28;20813;-69
2022/11/10 03:36:15;;;;;;;17.65;3.88;;;;;;;9.04;100.00;101701.47;5032092;28;20021;-68
2022/11/10 03:38:40;;;;;;;17.05;3.53;;;;;;;9.05;100.00;101706.66;5029128;28;20080;-68
2022/11/10 03:41:05;;;;;;;17.42;3.78;;;;;;;9.02;100.00;101717.03;5032244;28;20076;-68
2022/11/10 03:43:31;;;;;;;22.15;4.47;;;;;;;9.01;100.00;101718.91;5032174;28;20057;-68
2022/11/10 03:45:56;;;;;;;15.70;3.67;;;;;;;8.99;100.00;101720.94;5032261;28;20533;-68
2022/11/10 03:48:21;;;;;;;20.02;4.38;;;;;;;8.98;100.00;101726.53;5020597;28;20022;-68
2022/11/10 03:50:46;;;;;;;18.98;3.95;;;;;;;8.96;100.00;101729.44;5015725;28;20478;-69
2022/11/10 03:53:12;;;;;;;26.58;4.00;;;;;;;8.94;100.00;101738.78;5015875;28;20029;-69
2022/11/10 03:55:37;;;;;;;20.23;4.35;;;;;;;8.92;100.00;101738.94;5014429;28;20076;-68
2022/11/10 03:58:03;;;;;;;21.02;3.80;;;;;;;8.90;100.00;101732.91;5015674;28;20029;-68
2022/11/10 04:00:28;;;;;;;22.73;4.15;;;;;;;8.89;100.00;101735.78;5013333;28;20022;-68
2022/11/10 04:02:53;;;;;;;21.02;4.50;;;;;;;8.86;100.00;101742.41;5015304;28;20454;-68
2022/11/10 04:10:56;;;;;;;18.25;3.83;;;;;;;8.83;100.00;101742.78;5035214;28;20110;-69
2022/11/10 04:16:05;;;;;;;24.13;4.70;;;;;;;8.79;100.00;101763.94;5035021;28;20048;-68
2022/11/10 04:18:31;;;;;;;13.18;3.97;;;;;;;8.75;100.00;101756.41;5033646;28;20025;-68
2022/11/10 04:20:58;;;;;;;17.92;3.70;;;;;;;8.77;100.00;101765.13;5034943;28;20464;-68
2022/11/10 04:23:26;;;;;;;17.20;3.95;;;;;;;8.77;100.00;101767.84;5017496;28;20102;-68
2022/11/10 04:28:49;;;;;;;16.67;4.20;;;;;;;8.76;100.00;101779.69;5014308;28;20092;-68
2022/11/10 04:31:16;;;;;;;17.75;3.97;;;;;;;8.74;100.00;101776.31;5015054;28;20033;-68
2022/11/10 04:33:44;;;;;;;21.38;4.13;;;;;;;8.76;100.00;101785.09;5013810;28;20052;-68
2022/11/10 04:36:12;;;;;;;20.67;4.25;;;;;;;8.73;100.00;101783.59;5015108;28;20372;-69
2022/11/10 04:38:38;;;;;;;17.40;3.58;;;;;;;8.74;100.00;101784.41;5026857;28;20114;-68
2022/11/10 04:41:04;;;;;;;17.98;4.53;;;;;;;8.75;100.00;101788.78;5034845;28;20069;-68
2022/11/10 04:43:29;;;;;;;15.48;4.05;;;;;;;8.77;100.00;101800.22;5034626;28;20033;-68
2022/11/10 04:45:56;;;;;;;18.73;4.07;;;;;;;8.73;100.00;101807.06;5034595;28;20072;-68
2022/11/10 04:48:22;;;;;;;20.52;4.10;;;;;;;8.74;100.00;101803.31;5021771;28;20421;-69
2022/11/10 04:50:47;;;;;;;14.68;3.67;;;;;;;8.73;100.00;101807.06;5014406;28;20026;-68
2022/11/10 04:53:12;;;;;;;18.38;4.25;;;;;;;8.75;100.00;101811.22;5014216;28;20026;-68
2022/11/10 04:55:40;;;;;;;19.52;3.83;;;;;;;8.72;100.00;101822.38;5014395;28;20056;-68
2022/11/10 04:58:06;;;;;;;20.50;3.92;;;;;;;8.73;100.00;101821.38;5023115;28;20025;-68
2022/11/10 05:00:32;;;;;;;16.98;4.15;;;;;;;8.76;100.00;101829.09;5031763;28;20037;-68
2022/11/10 05:02:58;;;;;;;20.55;4.05;;;;;;;8.73;100.00;101825.94;5033998;28;20025;-68
2022/11/10 05:05:24;;;;;;;19.38;3.90;;;;;;;8.75;100.00;101831.97;5034189;28;20017;-68
2022/11/10 05:07:49;;;;;;;24.63;4.63;;;;;;;8.73;100.00;101829.47;5027607;28;20036;-68
2022/11/10 05:10:15;;;;;;;14.60;4.00;;;;;;;8.76;100.00;101833.66;5032844;28;20059;-68
2022/11/10 05:12:40;;;;;;;20.77;3.90;;;;;;;8.69;100.00;101831.69;5033991;28;20013;-68
2022/11/10 05:15:05;;;;;;;19.05;3.83;;;;;;;8.74;100.00;101846.47;5034153;28;20017;-68
2022/11/10 05:17:31;;;;;;;14.90;3.15;;;;;;;8.75;100.00;101845.47;5032672;28;20021;-68
2022/11/10 05:19:56;;;;;;;21.75;4.50;;;;;;;8.75;100.00;101842.78;5033941;28;20622;-69
2022/11/10 05:22:21;;;;;;;17.45;4.25;;;;;;;8.74;100.00;101847.34;5030683;28;20100;-69
2022/11/10 05:24:47;;;;;;;18.65;4.03;;;;;;;8.72;100.00;101849.38;5033825;28;20040;-68
2022/11/10 05:27:12;;;;;;;22.92;4.13;;;;;;;8.67;100.00;101852.63;5032589;28;20021;-68
2022/11/10 05:29:37;;;;;;;20.17;4.82;;;;;;;8.67;100.00;101852.63;5033943;28;20037;-68
2022/11/10 05:32:03;;;;;;;20.70;3.63;;;;;;;8.68;100.00;101848.91;5032219;28;20049;-68
2022/11/10 05:34:28;;;;;;;22.05;4.53;;;;;;;8.65;100.00;101848.44;5032642;28;20037;-68
2022/11/10 05:36:53;;;;;;;21.02;4.07;;;;;;;8.64;100.00;101842.22;5029079;28;20020;-68
2022/11/10 05:39:18;;;;;;;15.00;3.53;;;;;;;8.62;100.00;101838.03;5031884;28;20030;-68
2022/11/10 05:41:44;;;;;;;20.88;4.18;;;;;;;8.59;100.00;101833.00;5033387;28;20468;-68
2022/11/10 05:44:09;;;;;;;18.23;4.35;;;;;;;8.58;100.00;101832.19;5033260;28;20112;-68
2022/11/10 05:46:34;;;;;;;18.02;3.85;;;;;;;8.55;100.00;101840.66;5033585;28;20033;-68
2022/11/10 05:49:00;;;;;;;17.35;3.58;;;;;;;8.56;100.00;101852.25;5031204;28;20033;-69
2022/11/10 05:51:25;;;;;;;16.60;3.35;;;;;;;8.55;100.00;101847.91;5030771;28;20116;-68
2022/11/10 05:53:50;;;;;;;17.60;4.15;;;;;;;8.52;100.00;101859.91;5011848;28;20140;-69
2022/11/10 05:56:15;;;;;;;13.30;3.55;;;;;;;8.52;100.00;101871.53;5013576;28;20028;-68
2022/11/10 05:58:41;;;;;;;17.23;4.40;;;;;;;8.50;100.00;101859.28;5012802;28;20446;-68
2022/11/10 06:01:06;;;;;;;18.02;4.00;;;;;;;8.48;100.00;101864.84;5011032;28;20025;-68
2022/11/10 06:03:32;;;;;;;18.67;3.70;;;;;;;8.49;100.00;101862.97;5013521;28;20432;-69
2022/11/10 06:05:57;;;;;;;19.98;4.13;;;;;;;8.50;100.00;101868.19;5012535;28;20113;-68
2022/11/10 06:08:23;;;;;;;14.95;3.72;;;;;;;8.50;100.00;101875.47;5014492;28;20036;-68
2022/11/10 06:10:48;;;;;;;21.00;4.25;;;;;;;8.46;100.00;101885.75;5032827;28;20033;-68
2022/11/10 06:13:14;;;;;;;16.95;3.70;;;;;;;8.48;100.00;101885.56;5032821;28;20078;-68
2022/11/10 06:15:39;;;;;;;19.92;3.70;;;;;;;8.49;100.00;101892.66;5048326;28;20040;-68
2022/11/10 06:18:05;;;;;;;16.17;3.65;;;;;;;8.46;100.00;101899.25;5023389;28;20029;-68
2022/11/10 06:20:30;;;;;;;19.20;4.00;;;;;;;8.47;100.00;101895.53;5013120;28;20034;-68
2022/11/10 06:22:58;;;;;;;20.15;3.88;;;;;;;8.47;100.00;101898.22;5012624;28;20369;-68
2022/11/10 06:25:23;;;;;;;20.90;3.78;;;;;;;8.45;100.00;101902.97;5027497;28;20033;-69
2022/11/10 06:27:49;;;;;;;15.43;3.45;;;;;;;8.47;100.00;101905.47;5026296;28;20029;-68
2022/11/10 06:30:14;;;;;;;23.55;4.28;;;;;;;8.47;100.00;101900.06;5011777;28;20144;-69
2022/11/10 06:32:43;;;;;;;20.02;3.70;;;;;;;8.44;100.00;101900.44;5012613;28;20042;-68
2022/11/10 06:35:09;;;;;;;15.85;4.15;;;;;;;8.47;100.00;101908.16;5013007;28;20033;-68
2022/11/10 06:37:34;;;;;;;15.93;3.60;;;;;;;8.45;100.00;101916.44;5012488;28;21899;-68
2022/11/10 06:39:59;;;;;;;20.98;4.07;;;;;;;8.44;100.00;101925.56;5025261;28;20057;-68
2022/11/10 06:42:25;;;;;;;14.70;3.78;;;;;;;8.42;100.00;101926.75;5032722;28;20021;-68
2022/11/10 06:44:50;;;;;;;18.35;3.83;;;;;;;8.43;100.00;101926.56;5032478;28;20033;-68
2022/11/10 06:47:16;;;;;;;20.90;4.28;;;;;;;8.44;100.00;101935.50;5031487;28;20026;-68
2022/11/10 06:49:41;;;;;;;19.95;4.40;;;;;;;8.42;100.00;101934.84;5013141;28;20112;-69
2022/11/10 06:52:07;;;;;;;17.50;4.07;;;;;;;8.43;100.00;101947.31;5027495;28;20417;-69
2022/11/10 06:54:32;;;;;;;20.30;4.20;;;;;;;8.41;100.00;101949.34;5012480;28;20018;-68
2022/11/10 06:56:57;;;;;;;19.48;4.10;;;;;;;8.38;100.00;101961.34;5011286;28;20036;-69
2022/11/10 06:59:23;;;;;;;20.67;4.10;;;;;;;8.39;100.00;101954.91;5012333;28;20026;-68
2022/11/10 07:01:48;;;;;;;18.77;4.20;;;;;;;8.39;100.00;101956.78;5010168;28;20033;-68
2022/11/10 07:04:14;;;;;;;20.65;4.13;;;;;;;8.40;100.00;101958.47;5012733;28;20114;-69
2022/11/10 07:06:40;;;;;;;17.70;4.10;;;;;;;8.38;100.00;101960.50;5012685;28;20034;-68
2022/11/10 07:09:06;;;;;;;19.67;4.20;;;;;;;8.41;100.00;101960.13;5011670;28;20472;-68
2022/11/10 07:11:31;;;;;;;19.55;3.72;;;;;;;8.41;100.00;101966.38;5012285;28;20025;-68
2022/11/10 07:13:56;;;;;;;17.83;3.60;;;;;;;8.40;100.00;101971.97;5012157;28;20021;-68
2022/11/10 07:16:21;;;;;;;19.20;4.45;;;;;;;8.42;100.00;101965.34;5011338;28;20393;-69
2022/11/10 07:18:47;;;;;;;17.05;3.80;;;;;;;8.42;100.00;101989.63;5023459;28;20029;-69
2022/11/10 07:21:13;;;;;;;20.90;4.35;;;;;;;8.43;100.00;101987.78;5030380;28;20021;-69
2022/11/10 07:23:38;;;;;;;22.33;4.00;;;;;;;8.42;100.00;101976.13;5036163;28;20040;-68
2022/11/10 07:26:03;;;;;;;19.27;3.90;;;;;;;8.45;100.00;101991.97;5034686;28;20021;-69
2022/11/10 07:28:29;;;;;;;19.92;3.95;;;;;;;8.47;100.00;101992.66;5036109;28;20017;-69
2022/11/10 07:30:54;;;;;;;17.27;4.13;;;;;;;8.48;100.00;102004.25;5035001;28;20052;-69
2022/11/10 07:33:20;;;;;;;15.10;4.15;;;;;;;8.47;100.00;102016.06;5035707;28;20028;-68
2022/11/10 07:35:54;;;;;;;18.77;4.18;;;;;;;8.50;100.00;102024.66;5033645;28;20033;-68
2022/11/10 07:38:19;;;;;;;16.58;3.90;;;;;;;8.55;100.00;102020.59;5015639;28;20030;-69
2022/11/10 07:40:44;;;;;;;15.52;3.75;;;;;;;8.54;100.00;102024.28;5016022;28;20079;-69
2022/11/10 07:43:10;;;;;;;16.48;4.00;;;;;;;8.54;100.00;102022.41;5015652;28;20472;-68
2022/11/10 07:45:35;;;;;;;14.98;3.67;;;;;;;8.58;100.00;102021.03;5016033;28;20033;-68
2022/11/10 07:48:02;;;;;;;19.00;4.03;;;;;;;8.58;100.00;102022.91;5015766;28;20026;-69
2022/11/10 07:50:27;;;;;;;17.90;4.55;;;;;;;8.63;100.00;102026.72;5015630;28;20354;-69
2022/11/10 07:53:00;;;;;;;20.08;4.10;;;;;;;8.64;100.00;102019.47;5028619;28;20071;-69
2022/11/10 07:55:25;;;;;;;19.13;3.95;;;;;;;8.67;100.00;102019.09;5035848;28;20033;-71
2022/11/10 07:57:56;;;;;;;18.45;4.50;;;;;;;8.69;100.00;102022.44;5034184;28;20117;-73
2022/11/10 08:00:21;;;;;;;19.02;3.67;;;;;;;8.73;100.00;102021.06;5034056;28;20013;-70
2022/11/10 08:02:46;;;;;;;16.48;3.95;;;;;;;8.75;100.00;102037.06;5033435;28;20016;-70
2022/11/10 08:05:12;;;;;;;15.68;4.07;;;;;;;8.77;100.00;102043.97;5035225;28;20464;-70
2022/11/10 08:07:37;;;;;;;18.95;3.80;;;;;;;8.81;100.00;102041.75;5030411;28;20033;-70
2022/11/10 08:10:02;;;;;;;19.63;4.70;;;;;;;8.85;100.00;102046.59;5035139;28;20087;-71
2022/11/10 08:12:28;;;;;;;26.70;4.82;;;;;;;8.89;100.00;102057.00;5033977;28;20101;-70
2022/11/10 08:14:53;;;;;;;15.75;4.43;;;;;;;8.89;100.00;102065.94;5019898;28;20087;-70
2022/11/10 08:17:18;;;;;;;16.73;4.10;;;;;;;8.90;100.00;102062.22;5014128;28;20018;-70
2022/11/10 08:19:43;;;;;;;20.75;3.97;;;;;;;8.94;100.00;102074.34;5014097;28;20045;-70
2022/11/10 08:22:09;;;;;;;18.20;4.43;;;;;;;8.98;100.00;102070.25;5014793;28;20091;-70
2022/11/10 08:24:34;;;;;;;17.33;3.58;;;;;;;9.03;100.00;102064.31;5015448;28;20217;-70
2022/11/10 08:26:59;;;;;;;21.80;4.72;;;;;;;9.06;100.00;102072.03;5014770;28;20029;-70
2022/11/10 08:29:24;;;;;;;17.67;4.22;;;;;;;9.11;100.00;102074.19;5014882;28;20407;-70
2022/11/10 08:31:50;;;;;;;18.95;4.55;;;;;;;9.16;100.00;102078.00;5014232;28;20046;-71
2022/11/10 08:34:16;;;;;;;20.30;4.07;;;;;;;9.18;100.00;102080.53;5026974;28;20030;-75
2022/11/10 08:36:41;;;;;;;17.33;4.35;;;;;;;9.21;100.00;102083.69;5034886;28;20026;-71
2022/11/10 08:39:06;;;;;;;17.15;4.45;;;;;;;9.25;100.00;102080.59;5034586;28;20023;-71
2022/11/10 08:41:32;;;;;;;19.52;4.25;;;;;;;9.30;100.00;102087.13;5033813;28;20461;-71
2022/11/10 08:43:57;;;;;;;21.13;4.50;;;;;;;9.37;100.00;102084.50;5032248;28;20065;-71
2022/11/10 08:46:22;;;;;;;21.52;4.60;;;;;;;9.39;100.00;102088.72;5021665;28;20025;-71
2022/11/10 08:48:47;;;;;;;19.02;4.25;;;;;;;9.47;100.00;102086.94;5031747;28;20373;-72
2022/11/10 08:51:13;;;;;;;22.13;4.90;;;;;;;9.51;100.00;102093.63;5032365;28;20021;-71
2022/11/10 08:53:38;;;;;;;19.40;4.53;;;;;;;9.56;100.00;102099.31;5018972;28;20514;-71
2022/11/10 08:56:04;;;;;;;25.02;5.28;;;;;;;9.61;100.00;102096.88;5034088;28;20032;-71
2022/11/10 08:58:29;;;;;;;21.42;4.55;;;;;;;9.64;100.00;102101.91;5034436;28;20033;-71
2022/11/10 09:00:55;;;;;;;17.85;4.20;;;;;;;9.67;100.00;102106.94;5031702;28;20032;-70
2022/11/10 09:03:24;;;;;;;17.80;3.85;;;;;;;9.75;100.00;102100.59;5026772;28;20043;-70
2022/11/10 09:05:51;;;;;;;18.38;4.75;;;;;;;9.81;100.00;102115.22;5033421;28;20109;-71
2022/11/10 09:08:16;;;;;;;17.27;4.40;;;;;;;9.83;100.00;102114.03;5034058;28;20026;-71
2022/11/10 09:10:45;;;;;;;17.92;4.38;;;;;;;9.87;100.00;102117.16;5032932;28;20040;-71
2022/11/10 09:13:12;;;;;;;21.83;4.65;;;;;;;9.92;100.00;102123.69;5033180;28;20068;-71
2022/11/10 09:15:38;;;;;;;20.23;4.20;;;;;;;9.95;100.00;102119.78;5032923;28;20334;-71
2022/11/10 09:18:05;;;;;;;21.88;4.25;;;;;;;10.02;100.00;102127.97;5033871;28;20105;-71
2022/11/10 09:20:33;;;;;;;18.70;4.40;;;;;;;10.06;100.00;102134.69;5031470;28;20108;-71
2022/11/10 09:23:06;;;;;;;20.90;4.20;;;;;;;10.11;100.00;102130.38;5014006;28;20040;-71
2022/11/10 09:25:32;;;;;;;16.77;4.43;;;;;;;10.18;100.00;102129.63;5014192;28;20032;-71
2022/11/10 09:27:57;;;;;;;19.90;4.50;;;;;;;10.24;100.00;102128.84;5014028;28;20100;-71
2022/11/10 09:30:24;;;;;;;18.60;4.30;;;;;;;10.27;100.00;102128.47;5022306;28;20035;-71
2022/11/10 09:32:57;;;;;;;15.48;4.15;;;;;;;10.34;100.00;102129.41;5030749;28;20033;-71
2022/11/10 09:35:23;;;;;;;17.08;4.30;;;;;;;10.39;100.00;102126.13;5033376;28;20040;-71
2022/11/10 09:37:48;;;;;;;19.77;4.85;;;;;;;10.48;100.00;102129.53;5032480;28;20356;-76
2022/11/10 09:40:20;;;;;;;17.90;4.40;;;;;;;10.50;100.00;102125.59;5033039;28;20036;-72
2022/11/10 09:42:47;;;;;;;17.85;4.22;;;;;;;10.58;100.00;102130.91;5032162;28;20037;-72
2022/11/10 09:45:22;;;;;;;18.42;4.00;;;;;;;10.62;100.00;102132.16;5033108;28;20030;-73
2022/11/10 09:48:06;;;;;;;21.23;4.63;;;;;;;10.72;100.00;102139.97;5017486;28;20029;-71
2022/11/10 09:50:48;;;;;;;20.52;4.30;;;;;;;10.81;100.00;102140.69;5013722;28;20036;-70
2022/11/10 09:53:20;;;;;;;20.50;4.97;;;;;;;10.87;100.00;102149.88;5015939;28;20029;-71
2022/11/10 09:55:50;;;;;;;20.23;4.55;;;;;;;10.91;100.00;102145.75;5014644;28;20041;-78
2022/11/10 09:58:17;;;;;;;18.30;4.53;;;;;;;10.96;100.00;102149.56;5012944;28;20057;-72
2022/11/10 10:00:51;;;;;;;20.52;4.55;;;;;;;10.99;100.00;102134.78;5011032;28;20076;-73
2022/11/10 10:03:23;;;;;;;18.85;4.30;;;;;;;11.03;100.00;102138.78;5013020;28;20416;-72
2022/11/10 10:05:50;;;;;;;;;;;;;;;11.12;100.00;102143.00;5014004;28;20022;-71
2022/11/10 10:08:30;;;;;;;19.63;4.30;;;;;;;11.16;100.00;102132.63;5015357;28;19917;-71
2022/11/10 10:11:17;;;;;;;18.63;4.78;;;;;;;11.21;100.00;102140.16;5013348;28;20109;-71
2022/11/10 10:14:34;;;;;;;17.77;4.03;;;;;;;11.32;100.00;102147.72;5016110;28;20040;-72
2022/11/10 10:17:07;;;;;;;20.40;4.70;;;;;;;11.37;100.00;102150.69;5029394;28;20038;-72
2022/11/10 10:20:04;;;;;;;17.50;4.10;;;;;;;11.43;100.00;102155.31;5031594;28;20017;-71
2022/11/10 10:22:52;;;;;;;17.48;4.13;;;;;;;11.50;100.00;102169.75;5033290;28;20456;-71
2022/11/10 10:25:21;;;;;;;18.50;4.28;;;;;;;11.57;100.00;102160.84;5030563;28;20083;-72
2022/11/10 10:27:56;;;;;;;17.73;4.63;;;;;;;11.61;100.00;102175.63;5031429;28;20476;-71
2022/11/10 10:30:21;;;;;;;16.10;3.95;;;;;;;11.65;100.00;102166.09;5032396;28;20022;-71
2022/11/10 10:32:48;;;;;;;20.80;4.10;;;;;;;11.74;100.00;102177.59;5031171;28;20056;-72
2022/11/10 10:35:17;;;;;;;20.30;4.30;;;;;;;11.79;100.00;102175.97;5030476;28;20025;-72
2022/11/10 10:37:54;;;;;;;17.45;4.35;;;;;;;11.88;100.00;102184.75;5032824;28;20437;-71
2022/11/10 10:40:21;;;;;;;17.67;4.70;;;;;;;11.91;100.00;102194.38;5032441;28;20024;-73
2022/11/10 10:42:47;;;;;;;18.48;4.90;;;;;;;11.96;100.00;102200.91;5032774;28;20021;-72
2022/11/10 10:45:19;;;;;;;20.52;4.63;;;;;;;12.00;100.00;102210.34;5013883;28;20041;-71
2022/11/10 10:47:48;;;;;;;19.50;4.38;;;;;;;12.09;100.00;102216.41;5012915;28;20102;-72
2022/11/10 10:50:31;;;;;;;17.35;3.92;;;;;;;12.11;100.00;102217.06;5012684;28;20397;-71
2022/11/10 10:53:21;;;;;;;16.83;3.40;;;;;;;12.22;100.00;102212.94;5012820;28;20453;-72
2022/11/10 10:55:59;;;;;;;18.13;4.07;;;;;;;12.28;100.00;102209.41;5018257;28;20457;-71
2022/11/10 10:58:34;;;;;;;16.67;3.90;;;;;;;12.31;100.00;102210.88;5031841;28;20403;-71
2022/11/10 11:01:15;;;;;;;15.93;3.45;;;;;;;12.34;100.00;102216.72;5027736;28;20029;-72
2022/11/10 11:03:46;;;;;;;14.52;3.50;;;;;;;12.40;100.00;102215.91;5022911;28;20128;-71
2022/11/10 11:06:14;;;;;;;17.27;3.60;;;;;;;12.41;100.00;102214.88;5026421;28;20045;-72
2022/11/10 11:08:58;;;;;;;19.20;3.83;;;;;;;12.48;100.00;102217.59;5011788;28;20450;-71
2022/11/10 11:11:32;;;;;;;15.65;3.05;;;;;;;12.53;100.00;102198.84;5012592;28;20484;-73
2022/11/10 11:14:19;;;;;;;17.88;4.00;;;;;;;12.62;100.00;102195.91;5031564;28;20021;-72
2022/11/10 11:17:10;;;;;;;14.65;3.50;;;;;;;12.63;100.00;102205.75;5023056;28;20097;-71
2022/11/10 11:19:38;;;;;;;19.38;3.92;;;;;;;12.69;100.00;102219.31;5021631;28;20022;-71
2022/11/10 11:22:42;;;;;;;10.35;3.17;;;;;;;12.72;100.00;102207.22;5020378;28;20088;-71
2022/11/10 11:25:32;;;;;;;12.38;3.63;;;;;;;12.79;100.00;102213.50;5009883;28;20209;-72
2022/11/10 11:28:12;;;;;;;15.13;3.40;;;;;;;12.78;100.00;102198.25;5025173;28;20029;-71
2022/11/10 11:31:07;;;;;;;16.13;3.35;;;;;;;12.85;100.00;102195.56;5032287;28;20480;-71
2022/11/10 11:33:42;;;;;;;13.07;3.28;;;;;;;12.88;100.00;102204.13;5022877;28;20484;-71